sensor_id;sensor_type;location;lat;lon;timestamp;pressure;altitude;pressure_sealevel;temperature;humidity
44441;BME280;30146;52.268;20.944;2023-05-10T00:01:54;100982.11;;;10.41;36.21
44441;BME280;30146;52.268;20.944;2023-05-10T00:04:22;100978.17;;;10.36;36.47
44441;BME280;30146;52.268;20.944;2023-05-10T00:06:50;100979.88;;;10.33;36.35
44441;BME280;30146;52.268;20.944;2023-05-10T00:09:18;100974.20;;;10.28;36.51
44441;BME280;30146;52.268;20.944;2023-05-10T00:11:46;100970.77;;;10.23;36.44
44441;BME280;30146;52.268;20.944;2023-05-10T00:14:14;100970.08;;;10.18;36.60
44441;BME280;30146;52.268;20.944;2023-05-10T00:16:43;100970.75;;;10.13;36.73
44441;BME280;30146;52.268;20.944;2023-05-10T00:19:11;100969.39;;;10.08;36.64
44441;BME280;30146;52.268;20.944;2023-05-10T00:21:40;100962.53;;;10.03;36.85
44441;BME280;30146;52.268;20.944;2023-05-10T00:24:08;100961.83;;;9.98;36.87
44441;BME280;30146;52.268;20.944;2023-05-10T00:26:36;100957.55;;;9.93;36.96
44441;BME280;30146;52.268;20.944;2023-05-10T00:29:04;100956.67;;;9.89;36.99
44441;BME280;30146;52.268;20.944;2023-05-10T00:31:33;100951.38;;;9.87;37.30
44441;BME280;30146;52.268;20.944;2023-05-10T00:34:01;100958.20;;;9.83;37.19
44441;BME280;30146;52.268;20.944;2023-05-10T00:36:29;100956.83;;;9.80;37.28
44441;BME280;30146;52.268;20.944;2023-05-10T00:38:59;100954.08;;;9.78;37.31
44441;BME280;30146;52.268;20.944;2023-05-10T00:41:28;100956.11;;;9.75;37.37
44441;BME280;30146;52.268;20.944;2023-05-10T00:43:56;100950.81;;;9.72;37.46
44441;BME280;30146;52.268;20.944;2023-05-10T00:46:25;100948.59;;;9.71;37.58
44441;BME280;30146;52.268;20.944;2023-05-10T00:48:53;100947.91;;;9.69;37.36
44441;BME280;30146;52.268;20.944;2023-05-10T00:51:21;100948.91;;;9.65;37.53
44441;BME280;30146;52.268;20.944;2023-05-10T00:53:50;100946.33;;;9.60;37.66
44441;BME280;30146;52.268;20.944;2023-05-10T00:56:19;100949.23;;;9.58;37.61
44441;BME280;30146;52.268;20.944;2023-05-10T00:58:50;100952.28;;;9.57;37.51
44441;BME280;30146;52.268;20.944;2023-05-10T01:01:19;100945.45;;;9.55;37.64
44441;BME280;30146;52.268;20.944;2023-05-10T01:03:48;100946.14;;;9.53;37.81
44441;BME280;30146;52.268;20.944;2023-05-10T01:06:16;100943.58;;;9.52;37.62
44441;BME280;30146;52.268;20.944;2023-05-10T01:08:44;100944.58;;;9.50;37.74
44441;BME280;30146;52.268;20.944;2023-05-10T01:11:13;100944.91;;;9.48;37.79
44441;BME280;30146;52.268;20.944;2023-05-10T01:13:43;100941.14;;;9.46;37.65
44441;BME280;30146;52.268;20.944;2023-05-10T01:16:11;100936.54;;;9.43;37.68
44441;BME280;30146;52.268;20.944;2023-05-10T01:18:41;100935.67;;;9.41;37.88
44441;BME280;30146;52.268;20.944;2023-05-10T01:21:17;100937.54;;;9.41;37.74
44441;BME280;30146;52.268;20.944;2023-05-10T01:27:03;100935.83;;;9.38;37.88
44441;BME280;30146;52.268;20.944;2023-05-10T01:30:01;100943.66;;;9.36;37.82
44441;BME280;30146;52.268;20.944;2023-05-10T01:32:54;100933.73;;;9.30;37.81
44441;BME280;30146;52.268;20.944;2023-05-10T01:35:30;100933.71;;;9.26;37.81
44441;BME280;30146;52.268;20.944;2023-05-10T01:38:11;100936.42;;;9.23;37.80
44441;BME280;30146;52.268;20.944;2023-05-10T01:40:56;100933.33;;;9.20;37.93
44441;BME280;30146;52.268;20.944;2023-05-10T01:43:42;100931.96;;;9.17;38.20
44441;BME280;30146;52.268;20.944;2023-05-10T01:46:17;100928.19;;;9.15;38.25
44441;BME280;30146;52.268;20.944;2023-05-10T01:48:51;100925.29;;;9.13;38.12
44441;BME280;30146;52.268;20.944;2023-05-10T01:51:23;100921.17;;;9.09;38.20
44441;BME280;30146;52.268;20.944;2023-05-10T01:54:00;100918.59;;;9.06;38.33
44441;BME280;30146;52.268;20.944;2023-05-10T01:56:32;100917.89;;;9.03;38.16
44441;BME280;30146;52.268;20.944;2023-05-10T01:59:06;100918.91;;;9.02;38.35
44441;BME280;30146;52.268;20.944;2023-05-10T02:01:37;100916.33;;;8.98;38.50
44441;BME280;30146;52.268;20.944;2023-05-10T02:04:06;100912.89;;;8.96;38.51
44441;BME280;30146;52.268;20.944;2023-05-10T02:06:39;100910.84;;;8.94;38.70
44441;BME280;30146;52.268;20.944;2023-05-10T02:09:08;100915.94;;;8.92;38.57
44441;BME280;30146;52.268;20.944;2023-05-10T02:11:38;100911.66;;;8.89;38.65
44441;BME280;30146;52.268;20.944;2023-05-10T02:14:07;100915.40;;;8.88;38.79
44441;BME280;30146;52.268;20.944;2023-05-10T02:16:38;100912.67;;;8.86;38.85
44441;BME280;30146;52.268;20.944;2023-05-10T02:19:08;100917.78;;;8.85;38.80
44441;BME280;30146;52.268;20.944;2023-05-10T02:21:38;100914.17;;;8.83;38.92
44441;BME280;30146;52.268;20.944;2023-05-10T02:24:08;100911.59;;;8.80;38.81
44441;BME280;30146;52.268;20.944;2023-05-10T02:26:39;100912.60;;;8.77;38.87
44441;BME280;30146;52.268;20.944;2023-05-10T02:29:07;100911.20;;;8.73;39.03
44441;BME280;30146;52.268;20.944;2023-05-10T02:31:37;100910.52;;;8.70;39.08
44441;BME280;30146;52.268;20.944;2023-05-10T02:34:06;100910.68;;;8.70;39.08
44441;BME280;30146;52.268;20.944;2023-05-10T02:36:36;100909.66;;;8.71;39.00
44441;BME280;30146;52.268;20.944;2023-05-10T02:39:05;100908.48;;;8.70;39.21
44441;BME280;30146;52.268;20.944;2023-05-10T02:41:37;100912.20;;;8.69;39.19
44441;BME280;30146;52.268;20.944;2023-05-10T02:44:09;100915.44;;;8.68;39.21
44441;BME280;30146;52.268;20.944;2023-05-10T02:46:39;100914.40;;;8.66;39.29
44441;BME280;30146;52.268;20.944;2023-05-10T02:49:07;100913.02;;;8.65;39.38
44441;BME280;30146;52.268;20.944;2023-05-10T02:51:37;100913.34;;;8.61;39.49
44441;BME280;30146;52.268;20.944;2023-05-10T02:54:11;100919.30;;;8.60;39.39
44441;BME280;30146;52.268;20.944;2023-05-10T02:56:45;100921.33;;;8.58;39.51
44441;BME280;30146;52.268;20.944;2023-05-10T02:59:15;100918.42;;;8.58;39.64
44441;BME280;30146;52.268;20.944;2023-05-10T03:01:43;100918.08;;;8.58;39.75
44441;BME280;30146;52.268;20.944;2023-05-10T03:04:11;100922.16;;;8.56;39.77
44441;BME280;30146;52.268;20.944;2023-05-10T03:06:40;100918.57;;;8.54;39.77
44441;BME280;30146;52.268;20.944;2023-05-10T03:09:09;100919.75;;;8.52;39.93
44441;BME280;30146;52.268;20.944;2023-05-10T03:11:50;100922.47;;;8.52;39.86
44441;BME280;30146;52.268;20.944;2023-05-10T03:14:32;100918.88;;;8.50;39.88
44441;BME280;30146;52.268;20.944;2023-05-10T03:17:08;100923.81;;;8.48;39.93
44441;BME280;30146;52.268;20.944;2023-05-10T03:19:39;100919.88;;;8.47;40.29
44441;BME280;30146;52.268;20.944;2023-05-10T03:22:11;100921.92;;;8.47;40.14
44441;BME280;30146;52.268;20.944;2023-05-10T03:24:41;100921.21;;;8.45;40.26
44441;BME280;30146;52.268;20.944;2023-05-10T03:27:11;100917.80;;;8.44;40.22
44441;BME280;30146;52.268;20.944;2023-05-10T03:29:40;100919.33;;;8.43;40.48
44441;BME280;30146;52.268;20.944;2023-05-10T03:32:09;100918.64;;;8.43;40.46
44441;BME280;30146;52.268;20.944;2023-05-10T03:34:42;100924.42;;;8.42;40.57
44441;BME280;30146;52.268;20.944;2023-05-10T03:37:10;100915.88;;;8.41;40.48
44441;BME280;30146;52.268;20.944;2023-05-10T03:39:38;100921.02;;;8.43;40.71
44441;BME280;30146;52.268;20.944;2023-05-10T03:42:07;100920.02;;;8.45;40.76
44441;BME280;30146;52.268;20.944;2023-05-10T03:44:35;100914.41;;;8.46;40.83
44441;BME280;30146;52.268;20.944;2023-05-10T03:47:03;100916.50;;;8.51;40.75
44441;BME280;30146;52.268;20.944;2023-05-10T03:49:31;100914.89;;;8.62;41.00
44441;BME280;30146;52.268;20.944;2023-05-10T03:52:00;100910.41;;;8.79;40.97
44441;BME280;30146;52.268;20.944;2023-05-10T03:54:28;100911.22;;;8.98;40.84
44441;BME280;30146;52.268;20.944;2023-05-10T03:56:56;100907.73;;;9.16;40.80
44441;BME280;30146;52.268;20.944;2023-05-10T03:59:24;100910.55;;;9.36;40.72
44441;BME280;30146;52.268;20.944;2023-05-10T04:01:53;100907.92;;;9.58;40.63
44441;BME280;30146;52.268;20.944;2023-05-10T04:04:21;100905.27;;;9.87;40.58
44441;BME280;30146;52.268;20.944;2023-05-10T04:06:50;100909.60;;;10.22;40.29
44441;BME280;30146;52.268;20.944;2023-05-10T04:09:19;100910.67;;;10.62;40.11
44441;BME280;30146;52.268;20.944;2023-05-10T04:11:48;100913.02;;;11.04;39.66
44441;BME280;30146;52.268;20.944;2023-05-10T04:14:16;100909.91;;;11.58;39.61
44441;BME280;30146;52.268;20.944;2023-05-10T04:16:44;100910.10;;;12.22;39.55
44441;BME280;30146;52.268;20.944;2023-05-10T04:19:12;100907.65;;;12.87;39.01
44441;BME280;30146;52.268;20.944;2023-05-10T04:21:43;100909.85;;;13.53;38.40
44441;BME280;30146;52.268;20.944;2023-05-10T04:24:11;100909.63;;;14.08;37.25
44441;BME280;30146;52.268;20.944;2023-05-10T04:26:40;100905.52;;;14.62;37.03
44441;BME280;30146;52.268;20.944;2023-05-10T04:29:08;100908.52;;;15.33;36.85
44441;BME280;30146;52.268;20.944;2023-05-10T04:31:36;100908.84;;;16.00;36.25
44441;BME280;30146;52.268;20.944;2023-05-10T04:34:04;100904.41;;;16.63;35.52
44441;BME280;30146;52.268;20.944;2023-05-10T04:36:33;100903.23;;;17.27;35.12
44441;BME280;30146;52.268;20.944;2023-05-10T04:39:03;100906.48;;;17.81;33.69
44441;BME280;30146;52.268;20.944;2023-05-10T04:41:31;100910.71;;;18.24;32.86
44441;BME280;30146;52.268;20.944;2023-05-10T04:43:59;100906.48;;;18.69;32.18
44441;BME280;30146;52.268;20.944;2023-05-10T04:46:27;100908.59;;;19.08;32.12
44441;BME280;30146;52.268;20.944;2023-05-10T04:48:56;100914.05;;;19.72;32.30
44441;BME280;30146;52.268;20.944;2023-05-10T04:51:24;100907.63;;;20.25;31.85
44441;BME280;30146;52.268;20.944;2023-05-10T04:53:52;100907.89;;;20.90;31.72
44441;BME280;30146;52.268;20.944;2023-05-10T04:56:33;100911.09;;;21.40;30.61
44441;BME280;30146;52.268;20.944;2023-05-10T04:59:01;100907.97;;;21.62;30.03
44441;BME280;30146;52.268;20.944;2023-05-10T05:01:29;100905.60;;;21.87;29.43
44441;BME280;30146;52.268;20.944;2023-05-10T05:03:58;100907.77;;;22.14;29.17
44441;BME280;30146;52.268;20.944;2023-05-10T05:06:27;100906.45;;;22.27;28.68
44441;BME280;30146;52.268;20.944;2023-05-10T05:08:54;100906.80;;;22.55;28.91
44441;BME280;30146;52.268;20.944;2023-05-10T05:11:22;100905.34;;;22.98;28.75
44441;BME280;30146;52.268;20.944;2023-05-10T05:13:51;100909.19;;;23.40;28.31
44441;BME280;30146;52.268;20.944;2023-05-10T05:16:19;100905.98;;;23.74;27.86
44441;BME280;30146;52.268;20.944;2023-05-10T05:18:47;100905.05;;;24.00;27.35
44441;BME280;30146;52.268;20.944;2023-05-10T05:21:16;100903.04;;;24.23;26.94
44441;BME280;30146;52.268;20.944;2023-05-10T05:23:44;100902.10;;;24.31;26.35
44441;BME280;30146;52.268;20.944;2023-05-10T05:26:13;100897.96;;;24.54;26.66
44441;BME280;30146;52.268;20.944;2023-05-10T05:28:42;100907.30;;;24.85;26.21
44441;BME280;30146;52.268;20.944;2023-05-10T05:31:10;100903.02;;;24.72;25.47
44441;BME280;30146;52.268;20.944;2023-05-10T05:33:39;100905.38;;;24.79;25.37
44441;BME280;30146;52.268;20.944;2023-05-10T05:36:07;100901.96;;;25.01;25.77
44441;BME280;30146;52.268;20.944;2023-05-10T05:38:35;100905.79;;;25.25;25.31
44441;BME280;30146;52.268;20.944;2023-05-10T05:41:04;100908.42;;;25.10;24.18
44441;BME280;30146;52.268;20.944;2023-05-10T05:43:32;100910.41;;;24.83;23.89
44441;BME280;30146;52.268;20.944;2023-05-10T05:46:01;100910.41;;;24.53;23.66
44441;BME280;30146;52.268;20.944;2023-05-10T05:48:31;100908.46;;;24.35;24.14
44441;BME280;30146;52.268;20.944;2023-05-10T05:50:59;100908.08;;;24.45;24.29
44441;BME280;30146;52.268;20.944;2023-05-10T05:53:27;100908.55;;;24.79;25.14
44441;BME280;30146;52.268;20.944;2023-05-10T05:55:56;100906.71;;;25.27;25.06
44441;BME280;30146;52.268;20.944;2023-05-10T05:58:25;100905.56;;;25.48;24.18
44441;BME280;30146;52.268;20.944;2023-05-10T06:00:53;100908.01;;;25.67;24.31
44441;BME280;30146;52.268;20.944;2023-05-10T06:03:21;100910.59;;;26.09;24.33
44441;BME280;30146;52.268;20.944;2023-05-10T06:05:50;100912.33;;;26.25;23.54
44441;BME280;30146;52.268;20.944;2023-05-10T06:08:18;100910.69;;;26.02;22.65
44441;BME280;30146;52.268;20.944;2023-05-10T06:10:46;100911.41;;;25.80;22.85
44441;BME280;30146;52.268;20.944;2023-05-10T06:13:14;100911.30;;;25.76;23.03
44441;BME280;30146;52.268;20.944;2023-05-10T06:15:43;100911.01;;;25.78;22.82
44441;BME280;30146;52.268;20.944;2023-05-10T06:18:11;100916.51;;;25.91;22.93
44441;BME280;30146;52.268;20.944;2023-05-10T06:20:40;100915.41;;;25.97;22.79
44441;BME280;30146;52.268;20.944;2023-05-10T06:23:08;100912.08;;;26.00;22.55
44441;BME280;30146;52.268;20.944;2023-05-10T06:25:36;100914.88;;;26.24;23.26
44441;BME280;30146;52.268;20.944;2023-05-10T06:28:05;100919.48;;;26.44;22.63
44441;BME280;30146;52.268;20.944;2023-05-10T06:30:33;100913.14;;;26.40;22.17
44441;BME280;30146;52.268;20.944;2023-05-10T06:33:01;100916.77;;;26.38;21.90
44441;BME280;30146;52.268;20.944;2023-05-10T06:35:29;100912.08;;;26.29;22.03
44441;BME280;30146;52.268;20.944;2023-05-10T06:37:58;100909.65;;;26.63;22.55
44441;BME280;30146;52.268;20.944;2023-05-10T06:40:26;100908.78;;;26.71;21.56
44441;BME280;30146;52.268;20.944;2023-05-10T06:42:54;100911.77;;;26.47;21.07
44441;BME280;30146;52.268;20.944;2023-05-10T06:45:23;100907.05;;;26.44;21.73
44441;BME280;30146;52.268;20.944;2023-05-10T06:47:51;100909.75;;;26.59;21.56
44441;BME280;30146;52.268;20.944;2023-05-10T06:50:19;100908.60;;;26.40;21.18
44441;BME280;30146;52.268;20.944;2023-05-10T06:52:47;100912.88;;;26.36;21.34
44441;BME280;30146;52.268;20.944;2023-05-10T06:55:15;100909.40;;;26.30;21.50
44441;BME280;30146;52.268;20.944;2023-05-10T06:57:44;100908.56;;;26.24;21.35
44441;BME280;30146;52.268;20.944;2023-05-10T07:00:13;100914.40;;;25.82;20.60
44441;BME280;30146;52.268;20.944;2023-05-10T07:02:42;100910.15;;;25.28;21.19
44441;BME280;30146;52.268;20.944;2023-05-10T07:05:11;100904.76;;;25.01;21.71
44441;BME280;30146;52.268;20.944;2023-05-10T07:07:39;100915.73;;;24.81;22.05
44441;BME280;30146;52.268;20.944;2023-05-10T07:10:09;100911.27;;;24.56;22.44
44441;BME280;30146;52.268;20.944;2023-05-10T07:12:37;100912.41;;;24.24;22.50
44441;BME280;30146;52.268;20.944;2023-05-10T07:15:08;100913.59;;;23.85;22.45
44441;BME280;30146;52.268;20.944;2023-05-10T07:17:36;100911.19;;;23.43;22.73
44441;BME280;30146;52.268;20.944;2023-05-10T07:20:08;100904.20;;;23.23;23.04
44441;BME280;30146;52.268;20.944;2023-05-10T07:22:36;100908.92;;;22.99;22.88
44441;BME280;30146;52.268;20.944;2023-05-10T07:25:06;100907.98;;;22.56;22.51
44441;BME280;30146;52.268;20.944;2023-05-10T07:27:34;100901.08;;;22.05;22.53
44441;BME280;30146;52.268;20.944;2023-05-10T07:30:03;100908.52;;;21.66;22.98
44441;BME280;30146;52.268;20.944;2023-05-10T07:32:32;100911.11;;;21.31;23.00
44441;BME280;30146;52.268;20.944;2023-05-10T07:35:00;100905.67;;;21.01;23.37
44441;BME280;30146;52.268;20.944;2023-05-10T07:37:28;100914.89;;;20.72;23.39
44441;BME280;30146;52.268;20.944;2023-05-10T07:39:56;100909.45;;;20.40;23.50
44441;BME280;30146;52.268;20.944;2023-05-10T07:42:24;100922.56;;;20.16;23.58
44441;BME280;30146;52.268;20.944;2023-05-10T07:44:52;100916.02;;;19.89;23.69
44441;BME280;30146;52.268;20.944;2023-05-10T07:47:20;100922.86;;;19.68;23.60
44441;BME280;30146;52.268;20.944;2023-05-10T07:49:48;100913.51;;;19.44;23.64
44441;BME280;30146;52.268;20.944;2023-05-10T07:52:17;100914.31;;;19.27;23.91
44441;BME280;30146;52.268;20.944;2023-05-10T07:54:45;100902.14;;;19.19;24.14
44441;BME280;30146;52.268;20.944;2023-05-10T07:57:13;100913.34;;;19.16;24.35
44441;BME280;30146;52.268;20.944;2023-05-10T07:59:44;100913.94;;;19.09;24.22
44441;BME280;30146;52.268;20.944;2023-05-10T08:02:13;100915.45;;;19.00;23.95
44441;BME280;30146;52.268;20.944;2023-05-10T08:04:41;100908.64;;;18.87;23.98
44441;BME280;30146;52.268;20.944;2023-05-10T08:07:09;100897.39;;;18.81;24.11
44441;BME280;30146;52.268;20.944;2023-05-10T08:09:38;100903.70;;;18.79;23.93
44441;BME280;30146;52.268;20.944;2023-05-10T08:12:06;100909.32;;;18.72;23.94
44441;BME280;30146;52.268;20.944;2023-05-10T08:14:34;100896.79;;;18.53;23.96
44441;BME280;30146;52.268;20.944;2023-05-10T08:17:04;100899.40;;;18.42;24.26
44441;BME280;30146;52.268;20.944;2023-05-10T08:19:32;100899.15;;;18.39;24.36
44441;BME280;30146;52.268;20.944;2023-05-10T08:22:00;100904.42;;;18.37;23.95
44441;BME280;30146;52.268;20.944;2023-05-10T08:24:28;100887.02;;;18.23;24.08
44441;BME280;30146;52.268;20.944;2023-05-10T08:26:56;100891.86;;;18.23;24.32
44441;BME280;30146;52.268;20.944;2023-05-10T08:29:25;100886.36;;;18.28;24.65
44441;BME280;30146;52.268;20.944;2023-05-10T08:31:55;100899.23;;;18.37;24.64
44441;BME280;30146;52.268;20.944;2023-05-10T08:34:24;100884.85;;;18.42;24.54
44441;BME280;30146;52.268;20.944;2023-05-10T08:36:53;100890.27;;;18.51;24.46
44441;BME280;30146;52.268;20.944;2023-05-10T08:39:21;100887.37;;;18.55;24.20
44441;BME280;30146;52.268;20.944;2023-05-10T08:42:01;100889.23;;;18.56;24.16
44441;BME280;30146;52.268;20.944;2023-05-10T08:44:31;100885.77;;;18.56;24.18
44441;BME280;30146;52.268;20.944;2023-05-10T08:47:00;100885.25;;;18.61;24.18
44441;BME280;30146;52.268;20.944;2023-05-10T08:49:32;100892.66;;;18.67;24.11
44441;BME280;30146;52.268;20.944;2023-05-10T08:52:03;100884.17;;;18.72;24.10
44441;BME280;30146;52.268;20.944;2023-05-10T08:54:32;100881.97;;;18.76;24.07
44441;BME280;30146;52.268;20.944;2023-05-10T08:57:01;100888.04;;;18.81;23.87
44441;BME280;30146;52.268;20.944;2023-05-10T08:59:30;100891.34;;;18.81;23.80
44441;BME280;30146;52.268;20.944;2023-05-10T09:01:59;100910.33;;;18.77;23.44
44441;BME280;30146;52.268;20.944;2023-05-10T09:04:27;100894.53;;;18.58;23.25
44441;BME280;30146;52.268;20.944;2023-05-10T09:06:57;100887.86;;;18.45;23.37
44441;BME280;30146;52.268;20.944;2023-05-10T09:09:25;100875.29;;;18.38;23.61
44441;BME280;30146;52.268;20.944;2023-05-10T09:11:55;100876.28;;;18.34;23.72
44441;BME280;30146;52.268;20.944;2023-05-10T09:14:23;100874.08;;;18.34;24.08
44441;BME280;30146;52.268;20.944;2023-05-10T09:16:53;100867.56;;;18.41;24.13
44441;BME280;30146;52.268;20.944;2023-05-10T09:19:22;100865.14;;;18.47;24.03
44441;BME280;30146;52.268;20.944;2023-05-10T09:21:50;100861.70;;;18.46;23.78
44441;BME280;30146;52.268;20.944;2023-05-10T09:24:18;100856.55;;;18.50;24.06
44441;BME280;30146;52.268;20.944;2023-05-10T09:26:49;100857.89;;;18.56;23.92
44441;BME280;30146;52.268;20.944;2023-05-10T09:29:17;100863.87;;;18.63;24.00
44441;BME280;30146;52.268;20.944;2023-05-10T09:31:47;100857.13;;;18.68;24.08
44441;BME280;30146;52.268;20.944;2023-05-10T09:34:19;100856.55;;;18.80;24.30
44441;BME280;30146;52.268;20.944;2023-05-10T09:36:56;100871.59;;;18.92;24.06
44441;BME280;30146;52.268;20.944;2023-05-10T09:39:32;100874.74;;;18.91;23.63
44441;BME280;30146;52.268;20.944;2023-05-10T09:42:02;100878.59;;;18.84;23.49
44441;BME280;30146;52.268;20.944;2023-05-10T09:44:32;100866.82;;;18.73;23.42
44441;BME280;30146;52.268;20.944;2023-05-10T09:47:01;100859.36;;;18.69;23.81
44441;BME280;30146;52.268;20.944;2023-05-10T09:49:30;100861.06;;;18.70;23.90
44441;BME280;30146;52.268;20.944;2023-05-10T09:52:03;100857.45;;;18.70;24.03
44441;BME280;30146;52.268;20.944;2023-05-10T09:54:32;100865.50;;;18.67;23.88
44441;BME280;30146;52.268;20.944;2023-05-10T09:57:00;100860.21;;;18.64;24.09
44441;BME280;30146;52.268;20.944;2023-05-10T09:59:29;100868.21;;;18.63;23.92
44441;BME280;30146;52.268;20.944;2023-05-10T10:01:59;100861.16;;;18.57;24.05
44441;BME280;30146;52.268;20.944;2023-05-10T10:04:28;100853.27;;;18.60;24.21
44441;BME280;30146;52.268;20.944;2023-05-10T10:07:04;100849.87;;;18.68;24.40
44441;BME280;30146;52.268;20.944;2023-05-10T10:09:33;100855.48;;;18.76;24.26
44441;BME280;30146;52.268;20.944;2023-05-10T10:12:03;100844.98;;;18.74;24.17
44441;BME280;30146;52.268;20.944;2023-05-10T10:14:32;100850.30;;;18.76;24.22
44441;BME280;30146;52.268;20.944;2023-05-10T10:17:01;100847.75;;;18.69;23.98
44441;BME280;30146;52.268;20.944;2023-05-10T10:19:36;100834.60;;;18.64;24.19
44441;BME280;30146;52.268;20.944;2023-05-10T10:22:05;100839.54;;;18.71;24.51
44441;BME280;30146;52.268;20.944;2023-05-10T10:24:34;100830.10;;;18.78;24.43
44441;BME280;30146;52.268;20.944;2023-05-10T10:27:11;100826.52;;;18.83;24.27
44441;BME280;30146;52.268;20.944;2023-05-10T10:29:50;100830.80;;;18.84;24.23
44441;BME280;30146;52.268;20.944;2023-05-10T10:32:27;100826.71;;;18.82;23.87
44441;BME280;30146;52.268;20.944;2023-05-10T10:34:58;100836.28;;;18.76;23.86
44441;BME280;30146;52.268;20.944;2023-05-10T10:37:44;100834.76;;;18.64;23.89
44441;BME280;30146;52.268;20.944;2023-05-10T10:40:29;100820.92;;;18.49;23.92
44441;BME280;30146;52.268;20.944;2023-05-10T10:43:21;100812.44;;;18.44;24.28
44441;BME280;30146;52.268;20.944;2023-05-10T10:46:11;100813.83;;;18.44;24.36
44441;BME280;30146;52.268;20.944;2023-05-10T10:48:41;100811.23;;;18.44;24.29
44441;BME280;30146;52.268;20.944;2023-05-10T10:51:09;100820.48;;;18.42;24.19
44441;BME280;30146;52.268;20.944;2023-05-10T10:53:40;100817.75;;;18.36;24.02
44441;BME280;30146;52.268;20.944;2023-05-10T10:56:11;100807.52;;;18.26;24.20
44441;BME280;30146;52.268;20.944;2023-05-10T10:58:49;100811.57;;;18.24;24.50
44441;BME280;30146;52.268;20.944;2023-05-10T11:01:19;100814.98;;;18.20;24.19
44441;BME280;30146;52.268;20.944;2023-05-10T11:04:17;100819.41;;;18.12;24.10
44441;BME280;30146;52.268;20.944;2023-05-10T11:06:45;100805.30;;;18.04;24.11
44441;BME280;30146;52.268;20.944;2023-05-10T11:09:14;100791.78;;;18.00;24.37
44441;BME280;30146;52.268;20.944;2023-05-10T11:11:53;100792.48;;;18.05;24.65
44441;BME280;30146;52.268;20.944;2023-05-10T11:14:22;100804.03;;;18.11;24.41
44441;BME280;30146;52.268;20.944;2023-05-10T11:16:50;100811.39;;;18.08;24.03
44441;BME280;30146;52.268;20.944;2023-05-10T11:19:19;100793.70;;;17.99;24.08
44441;BME280;30146;52.268;20.944;2023-05-10T11:21:49;100798.14;;;17.96;24.23
44441;BME280;30146;52.268;20.944;2023-05-10T11:24:19;100796.05;;;17.91;24.16
44441;BME280;30146;52.268;20.944;2023-05-10T11:26:50;100794.62;;;17.87;24.25
44441;BME280;30146;52.268;20.944;2023-05-10T11:29:19;100801.23;;;17.86;24.26
44441;BME280;30146;52.268;20.944;2023-05-10T11:31:49;100790.90;;;17.78;23.99
44441;BME280;30146;52.268;20.944;2023-05-10T11:34:25;100791.83;;;17.70;24.14
44441;BME280;30146;52.268;20.944;2023-05-10T11:36:54;100793.71;;;17.66;24.38
44441;BME280;30146;52.268;20.944;2023-05-10T11:39:27;100782.17;;;17.64;24.57
44441;BME280;30146;52.268;20.944;2023-05-10T11:41:56;100784.14;;;17.68;24.84
44441;BME280;30146;52.268;20.944;2023-05-10T11:44:29;100784.23;;;17.71;24.75
44441;BME280;30146;52.268;20.944;2023-05-10T11:47:01;100789.99;;;17.74;24.58
44441;BME280;30146;52.268;20.944;2023-05-10T11:49:30;100785.23;;;17.72;24.60
44441;BME280;30146;52.268;20.944;2023-05-10T11:52:07;100791.07;;;17.73;24.68
44441;BME280;30146;52.268;20.944;2023-05-10T11:54:35;100774.82;;;17.73;24.90
44441;BME280;30146;52.268;20.944;2023-05-10T11:57:04;100777.54;;;17.74;24.92
44441;BME280;30146;52.268;20.944;2023-05-10T11:59:33;100794.20;;;17.72;24.92
44441;BME280;30146;52.268;20.944;2023-05-10T12:02:01;100784.61;;;17.69;24.88
44441;BME280;30146;52.268;20.944;2023-05-10T12:04:30;100782.45;;;17.67;24.88
44441;BME280;30146;52.268;20.944;2023-05-10T12:06:59;100775.61;;;17.64;25.01
44441;BME280;30146;52.268;20.944;2023-05-10T12:09:27;100777.46;;;17.65;25.22
44441;BME280;30146;52.268;20.944;2023-05-10T12:12:11;100776.13;;;17.70;25.20
44441;BME280;30146;52.268;20.944;2023-05-10T12:14:43;100770.90;;;17.71;25.21
44441;BME280;30146;52.268;20.944;2023-05-10T12:17:12;100774.79;;;17.74;25.22
44441;BME280;30146;52.268;20.944;2023-05-10T12:19:41;100771.31;;;17.74;25.22
44441;BME280;30146;52.268;20.944;2023-05-10T12:22:11;100772.67;;;17.75;25.23
44441;BME280;30146;52.268;20.944;2023-05-10T12:24:39;100774.45;;;17.74;25.22
44441;BME280;30146;52.268;20.944;2023-05-10T12:27:09;100779.21;;;17.70;25.12
44441;BME280;30146;52.268;20.944;2023-05-10T12:30:00;100776.59;;;17.66;25.00
44441;BME280;30146;52.268;20.944;2023-05-10T12:32:38;100770.13;;;17.62;25.10
44441;BME280;30146;52.268;20.944;2023-05-10T12:35:08;100761.40;;;17.60;25.24
44441;BME280;30146;52.268;20.944;2023-05-10T12:37:36;100770.05;;;17.60;25.43
44441;BME280;30146;52.268;20.944;2023-05-10T12:40:08;100769.92;;;17.58;25.48
44441;BME280;30146;52.268;20.944;2023-05-10T12:42:37;100770.33;;;17.57;25.44
44441;BME280;30146;52.268;20.944;2023-05-10T12:45:07;100766.48;;;17.52;25.52
44441;BME280;30146;52.268;20.944;2023-05-10T12:47:36;100763.13;;;17.48;25.45
44441;BME280;30146;52.268;20.944;2023-05-10T12:50:11;100764.98;;;17.45;25.59
44441;BME280;30146;52.268;20.944;2023-05-10T12:52:40;100759.38;;;17.42;25.38
44441;BME280;30146;52.268;20.944;2023-05-10T12:55:09;100760.15;;;17.39;25.34
44441;BME280;30146;52.268;20.944;2023-05-10T12:57:37;100777.40;;;17.35;25.04
44441;BME280;30146;52.268;20.944;2023-05-10T13:00:08;100755.14;;;17.28;25.41
44441;BME280;30146;52.268;20.944;2023-05-10T13:02:36;100754.89;;;17.30;25.78